createdAt,value
2018-12-13T00:01:40.145Z,102729.36
2018-12-13T00:04:09.162Z,102723.96
2018-12-13T00:06:38.114Z,102716.19
2018-12-13T00:09:07.931Z,102721.58
2018-12-13T00:11:36.961Z,102712.67
2018-12-13T00:14:06.165Z,102714.52
2018-12-13T00:16:35.243Z,102719.41
2018-12-13T00:19:04.149Z,102716.42
2018-12-13T00:21:33.117Z,102717.80
2018-12-13T00:24:02.237Z,102713.17
2018-12-13T00:26:31.170Z,102707.54
2018-12-13T00:29:00.410Z,102704.55
2018-12-13T00:31:29.652Z,102708.59
2018-12-13T00:33:58.638Z,102705.08
2018-12-13T00:36:28.567Z,102708.59
2018-12-13T00:38:57.992Z,102701.03
2018-12-13T00:41:26.978Z,102705.34
2018-12-13T00:43:56.039Z,102708.86
2018-12-13T00:46:25.065Z,102700.52
2018-12-13T00:48:54.370Z,102700.00
2018-12-13T00:51:23.716Z,102698.59
2018-12-13T00:53:52.731Z,102696.98
2018-12-13T00:56:22.022Z,102698.59
2018-12-13T00:58:50.954Z,102699.16
2018-12-13T01:01:19.864Z,102696.70
2018-12-13T01:03:48.836Z,102692.65
2018-12-13T01:06:17.786Z,102696.98
2018-12-13T01:08:47.276Z,102702.64
2018-12-13T01:11:16.287Z,102700.73
2018-12-13T01:13:45.478Z,102697.25
2018-12-13T01:16:20.417Z,102696.98
2018-12-13T01:18:50.262Z,102702.38
2018-12-13T01:21:20.845Z,102704.28
2018-12-13T01:23:50.110Z,102707.25
2018-12-13T01:26:19.553Z,102705.37
2018-12-13T01:28:48.641Z,102708.59
2018-12-13T01:31:17.837Z,102710.73
2018-12-13T01:33:47.105Z,102717.48
2018-12-13T01:36:16.133Z,102711.53
2018-12-13T01:38:45.089Z,102710.16
2018-12-13T01:41:14.359Z,102708.52
2018-12-13T01:43:43.269Z,102709.05
2018-12-13T01:46:12.572Z,102710.39
2018-12-13T01:48:41.424Z,102710.69
2018-12-13T01:51:10.724Z,102712.03
2018-12-13T01:53:39.641Z,102707.44
2018-12-13T01:56:08.655Z,102713.12
2018-12-13T01:58:37.734Z,102712.56
2018-12-13T02:01:06.764Z,102703.41
2018-12-13T02:03:35.740Z,102704.21
2018-12-13T02:06:05.125Z,102697.94
2018-12-13T02:08:34.135Z,102704.71
2018-12-13T02:11:03.906Z,102709.81
2018-12-13T02:13:33.228Z,102704.69
2018-12-13T02:16:02.293Z,102706.53
2018-12-13T02:18:31.228Z,102701.98
2018-12-13T02:21:00.915Z,102695.74
2018-12-13T02:23:29.992Z,102700.08
2018-12-13T02:25:58.886Z,102699.50
2018-12-13T02:28:27.967Z,102695.48
2018-12-13T02:30:56.834Z,102692.76
2018-12-13T02:33:25.895Z,102691.64
2018-12-13T02:35:54.774Z,102694.86
2018-12-13T02:38:23.762Z,102682.79
2018-12-13T02:40:52.759Z,102682.20
2018-12-13T02:43:21.674Z,102674.91
2018-12-13T02:45:50.903Z,102675.47
2018-12-13T02:48:19.833Z,102676.28
2018-12-13T02:50:49.054Z,102677.34
2018-12-13T02:53:18.174Z,102667.91
2018-12-13T02:55:47.312Z,102670.07
2018-12-13T02:58:16.261Z,102664.66
2018-12-13T03:00:45.142Z,102659.00
2018-12-13T03:03:14.098Z,102665.27
2018-12-13T03:05:43.060Z,102659.47
2018-12-13T03:08:12.156Z,102653.23
2018-12-13T03:10:41.029Z,102655.06
2018-12-13T03:13:09.978Z,102654.28
2018-12-13T03:15:38.921Z,102655.33
2018-12-13T03:18:08.211Z,102650.00
2018-12-13T03:20:37.107Z,102648.92
2018-12-13T03:23:06.063Z,102643.50
2018-12-13T03:25:35.112Z,102644.55
2018-12-13T03:28:04.785Z,102648.89
2018-12-13T03:30:33.770Z,102651.02
2018-12-13T03:33:02.760Z,102647.48
2018-12-13T03:35:31.685Z,102644.48
2018-12-13T03:38:01.628Z,102645.58
2018-12-13T03:40:30.671Z,102636.44
2018-12-13T03:42:59.720Z,102636.73
2018-12-13T03:45:28.738Z,102647.41
2018-12-13T03:47:58.107Z,102637.72
2018-12-13T03:50:27.026Z,102647.45
2018-12-13T03:52:55.918Z,102643.17
2018-12-13T03:55:25.015Z,102640.64
2018-12-13T03:57:54.296Z,102641.89
2018-12-13T04:00:23.220Z,102637.26
2018-12-13T04:02:52.137Z,102645.34
2018-12-13T04:05:21.297Z,102635.64
2018-12-13T04:07:50.337Z,102636.47
2018-12-13T04:10:20.309Z,102634.65
2018-12-13T04:12:49.676Z,102637.64
2018-12-13T04:15:18.835Z,102639.02
2018-12-13T04:17:47.791Z,102637.42
2018-12-13T04:20:16.796Z,102633.94
2018-12-13T04:22:45.657Z,102637.42
2018-12-13T04:25:14.599Z,102625.03
2018-12-13T04:27:43.837Z,102625.05
2018-12-13T04:30:12.838Z,102623.73
2018-12-13T04:32:42.167Z,102618.34
2018-12-13T04:35:11.094Z,102613.48
2018-12-13T04:37:40.576Z,102614.03
2018-12-13T04:40:09.572Z,102614.55
2018-12-13T04:42:38.409Z,102608.91
2018-12-13T04:45:07.485Z,102607.00
2018-12-13T04:47:36.415Z,102604.28
2018-12-13T04:50:06.851Z,102601.34
2018-12-13T04:52:35.723Z,102599.68
2018-12-13T04:55:05.280Z,102594.28
2018-12-13T04:57:34.397Z,102593.21
2018-12-13T05:00:03.703Z,102594.80
2018-12-13T05:02:32.719Z,102594.53
2018-12-13T05:05:02.841Z,102592.36
2018-12-13T05:07:31.772Z,102583.72
2018-12-13T05:10:22.084Z,102583.48
2018-12-13T05:12:51.005Z,102582.14
2018-12-13T05:15:19.912Z,102574.02
2018-12-13T05:17:48.844Z,102578.89
2018-12-13T05:20:17.851Z,102575.61
2018-12-13T05:22:47.394Z,102573.73
2018-12-13T05:25:17.129Z,102573.45
2018-12-13T05:27:48.128Z,102578.55
2018-12-13T05:30:17.169Z,102575.91
2018-12-13T05:32:46.376Z,102573.52
2018-12-13T05:35:15.292Z,102576.70
2018-12-13T05:37:48.281Z,102572.38
2018-12-13T05:40:15.650Z,102572.87
2018-12-13T05:42:44.565Z,102574.80
2018-12-13T05:45:13.993Z,102573.90
2018-12-13T05:47:42.909Z,102581.63
2018-12-13T05:50:11.931Z,102583.77
2018-12-13T05:52:40.895Z,102588.37
2018-12-13T05:55:09.848Z,102589.69
2018-12-13T05:57:38.848Z,102588.40
2018-12-13T06:00:09.884Z,102587.69
2018-12-13T06:02:38.795Z,102590.33
2018-12-13T06:05:08.046Z,102585.47
2018-12-13T06:07:37.332Z,102579.29
2018-12-13T06:10:06.604Z,102582.52
2018-12-13T06:12:35.513Z,102574.95
2018-12-13T06:15:05.581Z,102582.48
2018-12-13T06:17:34.587Z,102577.91
2018-12-13T06:20:04.742Z,102580.08
2018-12-13T06:22:33.707Z,102580.31
2018-12-13T06:25:02.803Z,102583.51
2018-12-13T06:27:31.961Z,102580.61
2018-12-13T06:30:07.225Z,102582.72
2018-12-13T06:32:31.832Z,102585.41
2018-12-13T06:35:00.810Z,102580.02
2018-12-13T06:37:29.683Z,102576.19
2018-12-13T06:39:58.669Z,102578.06
2018-12-13T06:42:27.557Z,102583.70
2018-12-13T06:44:56.447Z,102576.91
2018-12-13T06:47:25.639Z,102581.48
2018-12-13T06:49:54.550Z,102590.31
2018-12-13T06:52:23.467Z,102586.27
2018-12-13T06:54:52.724Z,102584.62
2018-12-13T06:57:21.587Z,102583.02
2018-12-13T06:59:50.561Z,102577.04
2018-12-13T07:02:20.820Z,102579.57
2018-12-13T07:04:49.733Z,102586.80
2018-12-13T07:07:18.604Z,102587.06
2018-12-13T07:09:47.759Z,102591.33
2018-12-13T07:12:16.796Z,102583.55
2018-12-13T07:14:45.899Z,102585.19
2018-12-13T07:17:14.929Z,102573.10
2018-12-13T07:19:43.840Z,102572.87
2018-12-13T07:22:13.036Z,102578.48
2018-12-13T07:24:42.016Z,102584.96
2018-12-13T07:27:10.888Z,102589.00
2018-12-13T07:29:40.028Z,102582.36
2018-12-13T07:32:09.393Z,102585.32
2018-12-13T07:34:39.128Z,102588.08
2018-12-13T07:37:08.611Z,102587.91
2018-12-13T07:39:38.451Z,102585.73
2018-12-13T07:42:08.533Z,102580.58
2018-12-13T07:44:37.494Z,102582.54
2018-12-13T07:47:07.485Z,102583.63
2018-12-13T07:49:38.242Z,102591.45
2018-12-13T07:52:07.328Z,102585.81
2018-12-13T07:54:37.580Z,102592.52
2018-12-13T07:57:07.059Z,102589.86
2018-12-13T07:59:36.283Z,102595.48
2018-12-13T08:02:06.035Z,102596.80
2018-12-13T08:04:34.915Z,102593.98
2018-12-13T08:07:03.991Z,102593.20
2018-12-13T08:09:33.763Z,102593.23
2018-12-13T08:12:02.675Z,102598.09
2018-12-13T08:14:31.635Z,102600.21
2018-12-13T08:17:00.607Z,102605.14
2018-12-13T08:19:29.598Z,102598.95
2018-12-13T08:21:58.612Z,102599.51
2018-12-13T08:24:27.521Z,102601.90
2018-12-13T08:26:56.592Z,102602.14
2018-12-13T08:29:26.012Z,102602.12
2018-12-13T08:31:55.040Z,102602.43
2018-12-13T08:34:23.918Z,102596.84
2018-12-13T08:36:52.826Z,102600.33
2018-12-13T08:39:21.929Z,102598.16
2018-12-13T08:41:50.875Z,102597.89
2018-12-13T08:44:19.769Z,102603.27
2018-12-13T08:46:48.785Z,102606.45
2018-12-13T08:49:17.893Z,102604.91
2018-12-13T08:51:47.100Z,102600.30
2018-12-13T08:54:16.096Z,102602.16
2018-12-13T08:56:45.043Z,102606.73
2018-12-13T08:59:14.154Z,102609.67
2018-12-13T09:01:43.219Z,102603.22
2018-12-13T09:04:13.651Z,102602.67
2018-12-13T09:06:42.630Z,102603.77
2018-12-13T09:09:11.725Z,102602.76
2018-12-13T09:11:42.341Z,102607.67
2018-12-13T09:14:11.347Z,102597.41
2018-12-13T09:16:40.506Z,102599.46
2018-12-13T09:19:09.626Z,102603.02
2018-12-13T09:21:38.554Z,102605.42
2018-12-13T09:24:07.550Z,102609.52
2018-12-13T09:26:36.513Z,102596.52
2018-12-13T09:29:05.688Z,102604.38
2018-12-13T09:31:34.627Z,102601.89
2018-12-13T09:34:03.600Z,102601.88
2018-12-13T09:36:32.726Z,102600.30
2018-12-13T09:39:01.786Z,102600.55
2018-12-13T09:41:30.682Z,102600.90
2018-12-13T09:43:59.791Z,102600.59
2018-12-13T09:46:28.675Z,102592.99
2018-12-13T09:48:57.742Z,102602.95
2018-12-13T09:51:27.008Z,102613.72
2018-12-13T09:53:55.844Z,102604.64
2018-12-13T09:56:24.879Z,102611.31
2018-12-13T09:58:53.793Z,102605.12
2018-12-13T10:01:22.988Z,102599.68
2018-12-13T10:03:52.970Z,102596.38
2018-12-13T10:06:21.883Z,102596.48
2018-12-13T10:08:50.760Z,102592.99
2018-12-13T10:11:20.706Z,102585.98
2018-12-13T10:13:49.589Z,102587.06
2018-12-13T10:16:18.621Z,102581.18
2018-12-13T10:18:47.666Z,102584.22
2018-12-13T10:21:16.575Z,102580.72
2018-12-13T10:23:45.630Z,102574.73
2018-12-13T10:26:14.561Z,102577.25
2018-12-13T10:28:43.735Z,102577.70
2018-12-13T10:31:13.190Z,102578.73
2018-12-13T10:33:42.409Z,102570.08
2018-12-13T10:36:11.312Z,102570.65
2018-12-13T10:38:40.266Z,102568.94
2018-12-13T10:41:09.199Z,102568.10
2018-12-13T10:43:38.091Z,102574.80
2018-12-13T10:46:07.041Z,102565.58
2018-12-13T10:48:35.986Z,102562.33
2018-12-13T10:51:04.875Z,102568.03
2018-12-13T10:53:34.022Z,102572.05
2018-12-13T10:56:03.007Z,102566.42
2018-12-13T10:58:31.891Z,102566.45
2018-12-13T11:01:06.203Z,102564.57
2018-12-13T11:03:35.213Z,102565.60
2018-12-13T11:06:04.900Z,102572.13
2018-12-13T11:08:34.828Z,102560.88
2018-12-13T11:11:04.069Z,102558.63
2018-12-13T11:13:32.978Z,102566.69
2018-12-13T11:16:02.009Z,102565.34
2018-12-13T11:18:31.587Z,102568.56
2018-12-13T11:21:00.608Z,102563.22
2018-12-13T11:23:29.646Z,102565.09
2018-12-13T11:25:58.670Z,102561.67
2018-12-13T11:28:49.336Z,102557.14
2018-12-13T11:31:18.288Z,102557.50
2018-12-13T11:33:47.452Z,102558.33
2018-12-13T11:36:16.393Z,102559.11
2018-12-13T11:38:45.337Z,102557.11
2018-12-13T11:41:14.617Z,102556.00
2018-12-13T11:43:43.483Z,102547.87
2018-12-13T11:46:12.390Z,102545.72
2018-12-13T11:48:41.612Z,102548.69
2018-12-13T11:51:10.540Z,102543.06
2018-12-13T11:53:40.311Z,102542.74
2018-12-13T11:56:09.256Z,102545.74
2018-12-13T11:58:38.157Z,102548.41
2018-12-13T12:01:07.036Z,102537.72
2018-12-13T12:03:36.427Z,102531.50
2018-12-13T12:06:05.293Z,102533.45
2018-12-13T12:08:34.170Z,102526.19
2018-12-13T12:11:03.870Z,102529.69
2018-12-13T12:13:32.833Z,102524.90
2018-12-13T12:16:01.922Z,102520.58
2018-12-13T12:18:30.826Z,102517.89
2018-12-13T12:20:59.653Z,102522.47
2018-12-13T12:23:29.308Z,102519.49
2018-12-13T12:25:58.198Z,102518.66
2018-12-13T12:28:27.165Z,102514.08
2018-12-13T12:30:56.239Z,102516.79
2018-12-13T12:33:25.121Z,102509.50
2018-12-13T12:35:53.986Z,102516.77
2018-12-13T12:38:22.908Z,102509.50
2018-12-13T12:40:51.874Z,102505.13
2018-12-13T12:43:20.894Z,102499.80
2018-12-13T12:45:49.794Z,102499.20
2018-12-13T12:48:18.697Z,102503.78
2018-12-13T12:50:47.582Z,102504.60
2018-12-13T12:53:17.781Z,102494.35
2018-12-13T12:55:47.804Z,102484.09
2018-12-13T12:58:16.936Z,102484.66
2018-12-13T13:00:47.065Z,102480.59
2018-12-13T13:03:16.341Z,102471.70
2018-12-13T13:05:46.884Z,102474.94
2018-12-13T13:08:16.334Z,102476.83
2018-12-13T13:10:45.261Z,102470.34
2018-12-13T13:13:14.950Z,102469.54
2018-12-13T13:15:45.731Z,102472.49
2018-12-13T13:18:15.139Z,102468.20
2018-12-13T13:20:45.231Z,102469.56
2018-12-13T13:23:14.395Z,102467.95
2018-12-13T13:25:44.064Z,102463.64
2018-12-13T13:28:13.088Z,102463.09
2018-12-13T13:30:42.970Z,102463.94
2018-12-13T13:33:12.000Z,102462.30
2018-12-13T13:35:41.310Z,102463.91
2018-12-13T13:38:10.348Z,102464.20
2018-12-13T13:40:40.282Z,102464.20
2018-12-13T13:43:09.561Z,102457.45
2018-12-13T13:45:39.287Z,102457.20
2018-12-13T13:48:08.626Z,102449.05
2018-12-13T13:50:37.700Z,102450.95
2018-12-13T13:53:07.481Z,102456.38
2018-12-13T13:55:37.522Z,102448.26
2018-12-13T13:58:07.725Z,102452.86
2018-12-13T14:00:37.442Z,102446.91
2018-12-13T14:03:07.281Z,102447.42
2018-12-13T14:05:36.584Z,102449.05
2018-12-13T14:08:06.085Z,102436.63
2018-12-13T14:10:35.049Z,102440.42
2018-12-13T14:13:05.037Z,102444.74
2018-12-13T14:15:34.563Z,102448.81
2018-12-13T14:18:03.776Z,102444.48
2018-12-13T14:20:33.177Z,102439.59
2018-12-13T14:23:02.067Z,102443.37
2018-12-13T14:25:30.973Z,102439.31
2018-12-13T14:27:59.959Z,102430.41
2018-12-13T14:30:28.957Z,102433.91
2018-12-13T14:32:58.523Z,102430.69
2018-12-13T14:35:27.462Z,102428.24
2018-12-13T14:37:56.334Z,102433.13
2018-12-13T14:40:25.214Z,102428.01
2018-12-13T14:42:54.263Z,102427.97
2018-12-13T14:45:23.294Z,102431.48
2018-12-13T14:47:54.697Z,102432.27
2018-12-13T14:50:23.711Z,102430.94
2018-12-13T14:52:52.685Z,102433.34
2018-12-13T14:55:21.629Z,102428.22
2018-12-13T14:57:50.566Z,102431.16
2018-12-13T15:00:19.807Z,102433.33
2018-12-13T15:02:48.832Z,102435.23
2018-12-13T15:05:17.919Z,102429.83
2018-12-13T15:07:46.929Z,102433.32
2018-12-13T15:10:15.964Z,102431.97
2018-12-13T15:12:44.839Z,102428.73
2018-12-13T15:15:13.765Z,102434.09
2018-12-13T15:17:42.778Z,102434.11
2018-12-13T15:20:11.722Z,102427.94
2018-12-13T15:22:40.700Z,102433.56
2018-12-13T15:25:09.824Z,102439.50
2018-12-13T15:27:38.685Z,102434.17
2018-12-13T15:30:08.121Z,102435.77
2018-12-13T15:32:37.334Z,102432.52
2018-12-13T15:35:07.070Z,102435.22
2018-12-13T15:37:35.930Z,102437.36
2018-12-13T15:40:05.395Z,102439.23
2018-12-13T15:42:34.301Z,102438.44
2018-12-13T15:45:03.400Z,102441.09
2018-12-13T15:47:32.511Z,102438.95
2018-12-13T15:50:01.365Z,102437.60
2018-12-13T15:52:30.233Z,102432.45
2018-12-13T15:54:59.133Z,102436.78
2018-12-13T15:57:28.028Z,102427.37
2018-12-13T15:59:56.896Z,102431.13
2018-12-13T16:02:26.195Z,102429.24
2018-12-13T16:04:55.091Z,102431.39
2018-12-13T16:07:24.148Z,102421.67
2018-12-13T16:09:53.859Z,102425.42
2018-12-13T16:12:22.925Z,102422.45
2018-12-13T16:14:51.841Z,102420.87
2018-12-13T16:17:20.863Z,102415.19
2018-12-13T16:19:49.772Z,102419.77
2018-12-13T16:22:18.640Z,102418.66
2018-12-13T16:24:47.624Z,102415.72
2018-12-13T16:27:17.144Z,102420.57
2018-12-13T16:29:46.064Z,102419.47
2018-12-13T16:32:15.636Z,102413.00
2018-12-13T16:34:44.549Z,102408.42
2018-12-13T16:37:14.782Z,102411.12
2018-12-13T16:39:43.631Z,102414.11
2018-12-13T16:42:12.668Z,102417.86
2018-12-13T16:44:43.812Z,102420.00
2018-12-13T16:47:12.718Z,102417.59
2018-12-13T16:49:41.582Z,102419.74
2018-12-13T16:52:10.659Z,102417.33
2018-12-13T16:54:40.113Z,102416.52
2018-12-13T16:57:08.952Z,102416.25
2018-12-13T16:59:37.957Z,102416.20
2018-12-13T17:02:06.854Z,102419.45
2018-12-13T17:04:35.758Z,102413.57
2018-12-13T17:07:04.697Z,102419.50
2018-12-13T17:09:33.700Z,102416.52
2018-12-13T17:12:02.738Z,102421.41
2018-12-13T17:14:31.645Z,102428.94
2018-12-13T17:17:00.569Z,102437.81
2018-12-13T17:19:29.527Z,102438.88
2018-12-13T17:21:58.432Z,102437.81
2018-12-13T17:24:27.368Z,102432.14
2018-12-13T17:26:56.313Z,102434.61
2018-12-13T17:29:25.391Z,102438.36
2018-12-13T17:31:54.400Z,102437.28
2018-12-13T17:34:23.413Z,102435.11
2018-12-13T17:36:52.487Z,102441.31
2018-12-13T17:39:21.392Z,102431.34
2018-12-13T17:41:50.347Z,102442.11
2018-12-13T17:44:19.293Z,102444.06
2018-12-13T17:46:48.878Z,102444.27
2018-12-13T17:49:17.761Z,102444.55
2018-12-13T17:51:46.645Z,102450.23
2018-12-13T17:54:17.106Z,102452.90
2018-12-13T17:56:46.186Z,102455.33
2018-12-13T17:59:15.105Z,102447.27
2018-12-13T18:01:44.266Z,102443.52
2018-12-13T18:04:13.154Z,102442.42
2018-12-13T18:06:42.053Z,102446.47
2018-12-13T18:09:10.990Z,102436.78
2018-12-13T18:11:39.971Z,102438.71
2018-12-13T18:14:08.923Z,102438.44
2018-12-13T18:16:43.255Z,102436.55
2018-12-13T18:19:08.797Z,102440.84
2018-12-13T18:21:37.811Z,102439.27
2018-12-13T18:24:06.787Z,102445.20
2018-12-13T18:26:35.851Z,102439.00
2018-12-13T18:29:04.951Z,102440.84
2018-12-13T18:31:33.912Z,102436.55
2018-12-13T18:34:02.852Z,102437.11
2018-12-13T18:36:31.727Z,102438.71
2018-12-13T18:39:00.656Z,102442.23
2018-12-13T18:41:29.658Z,102439.81
2018-12-13T18:43:58.607Z,102441.69
2018-12-13T18:46:27.511Z,102438.77
2018-12-13T18:48:56.419Z,102436.59
2018-12-13T18:51:25.870Z,102433.92
2018-12-13T18:53:55.075Z,102442.25
2018-12-13T18:56:24.205Z,102451.13
2018-12-13T18:58:53.190Z,102450.05
2018-12-13T19:01:22.109Z,102451.95
2018-12-13T19:03:51.136Z,102444.38
2018-12-13T19:06:20.115Z,102446.01
2018-12-13T19:08:49.094Z,102445.76
2018-12-13T19:11:18.192Z,102447.39
2018-12-13T19:13:47.495Z,102438.22
2018-12-13T19:16:16.449Z,102435.52
2018-12-13T19:18:47.012Z,102435.52
2018-12-13T19:21:15.869Z,102435.25
2018-12-13T19:23:44.820Z,102445.48
2018-12-13T19:26:13.733Z,102441.69
2018-12-13T19:28:42.677Z,102446.26
2018-12-13T19:31:12.042Z,102443.28
2018-12-13T19:33:41.000Z,102442.77
2018-12-13T19:36:10.043Z,102439.78
2018-12-13T19:38:38.989Z,102443.84
2018-12-13T19:41:07.987Z,102444.36
2018-12-13T19:43:36.864Z,102457.00
2018-12-13T19:46:05.876Z,102446.50
2018-12-13T19:48:34.725Z,102453.76
2018-12-13T19:51:03.918Z,102457.55
2018-12-13T19:53:32.991Z,102463.50
2018-12-13T19:56:01.855Z,102462.47
2018-12-13T19:58:30.709Z,102456.76
2018-12-13T20:00:59.634Z,102462.15
2018-12-13T20:03:28.527Z,102462.10
2018-12-13T20:05:57.465Z,102467.23
2018-12-13T20:08:26.481Z,102468.55
2018-12-13T20:10:55.701Z,102465.09
2018-12-13T20:13:25.527Z,102467.80
2018-12-13T20:15:54.463Z,102470.48
2018-12-13T20:18:23.793Z,102468.61
2018-12-13T20:20:52.658Z,102467.52
2018-12-13T20:23:21.550Z,102467.48
2018-12-13T20:25:50.480Z,102468.32
2018-12-13T20:28:19.499Z,102475.85
2018-12-13T20:30:48.590Z,102469.91
2018-12-13T20:33:17.501Z,102468.02
2018-12-13T20:35:46.719Z,102467.17
2018-12-13T20:38:15.949Z,102467.69
2018-12-13T20:40:45.353Z,102474.16
2018-12-13T20:43:14.277Z,102472.52
2018-12-13T20:45:43.168Z,102479.52
2018-12-13T20:48:12.294Z,102469.80
2018-12-13T20:50:41.163Z,102474.91
2018-12-13T20:53:10.083Z,102474.61
2018-12-13T20:55:39.151Z,102477.28
2018-12-13T20:58:08.024Z,102478.87
2018-12-13T21:00:36.953Z,102483.17
2018-12-13T21:03:06.083Z,102484.55
2018-12-13T21:05:34.951Z,102478.31
2018-12-13T21:08:08.598Z,102480.13
2018-12-13T21:10:38.808Z,102487.92
2018-12-13T21:13:07.902Z,102486.28
2018-12-13T21:15:36.803Z,102495.47
2018-12-13T21:18:05.766Z,102495.94
2018-12-13T21:20:34.679Z,102494.80
2018-12-13T21:23:03.598Z,102498.80
2018-12-13T21:25:33.112Z,102496.36
2018-12-13T21:28:02.054Z,102492.03
2018-12-13T21:30:31.045Z,102489.05
2018-12-13T21:33:00.675Z,102496.53
2018-12-13T21:35:29.940Z,102489.53
2018-12-13T21:37:59.015Z,102488.67
2018-12-13T21:40:28.607Z,102486.52
2018-12-13T21:42:57.718Z,102484.05
2018-12-13T21:45:26.614Z,102481.09
2018-12-13T21:47:55.462Z,102493.20
2018-12-13T21:50:25.049Z,102490.44
2018-12-13T21:52:55.042Z,102487.97
2018-12-13T21:55:24.543Z,102488.23
2018-12-13T21:57:53.965Z,102483.08
2018-12-13T22:00:23.404Z,102484.37
2018-12-13T22:02:53.425Z,102483.55
2018-12-13T22:05:22.625Z,102475.75
2018-12-13T22:07:52.610Z,102481.39
2018-12-13T22:10:21.969Z,102478.35
2018-12-13T22:12:52.093Z,102475.93
2018-12-13T22:15:22.490Z,102481.09
2018-12-13T22:17:52.052Z,102484.78
2018-12-13T22:20:21.023Z,102483.69
2018-12-13T22:22:50.173Z,102487.46
2018-12-13T22:25:19.484Z,102490.89
2018-12-13T22:27:48.702Z,102489.33
2018-12-13T22:30:17.636Z,102501.16
2018-12-13T22:32:46.597Z,102495.78
2018-12-13T22:35:15.523Z,102490.80
2018-12-13T22:37:44.366Z,102494.50
2018-12-13T22:40:13.277Z,102495.91
2018-12-13T22:42:42.214Z,102497.52
2018-12-13T22:45:11.141Z,102494.31
2018-12-13T22:47:40.728Z,102496.53
2018-12-13T22:50:09.773Z,102495.48
2018-12-13T22:52:38.751Z,102495.00
2018-12-13T22:55:07.895Z,102497.69
2018-12-13T22:57:36.913Z,102496.97
2018-12-13T23:00:09.790Z,102500.16
2018-12-13T23:02:38.908Z,102502.66
2018-12-13T23:05:07.952Z,102511.25
2018-12-13T23:07:37.083Z,102508.56
2018-12-13T23:10:06.221Z,102508.89
2018-12-13T23:12:35.430Z,102514.58
2018-12-13T23:15:04.915Z,102515.66
2018-12-13T23:17:33.825Z,102521.31
2018-12-13T23:20:03.038Z,102516.45
2018-12-13T23:22:32.220Z,102513.80
2018-12-13T23:25:01.047Z,102515.70
2018-12-13T23:27:30.314Z,102504.67
2018-12-13T23:29:59.949Z,102511.10
2018-12-13T23:32:28.870Z,102506.54
2018-12-13T23:34:57.803Z,102497.42
2018-12-13T23:37:26.708Z,102504.44
2018-12-13T23:39:55.597Z,102494.20
2018-12-13T23:42:24.640Z,102497.97
2018-12-13T23:44:54.058Z,102499.59
2018-12-13T23:47:23.460Z,102502.31
2018-12-13T23:49:52.433Z,102503.12
2018-12-13T23:52:21.297Z,102497.19
2018-12-13T23:54:50.163Z,102504.48
2018-12-13T23:57:19.257Z,102500.96
2018-12-13T23:59:48.756Z,102497.48
